createdAt,value
2019-06-20T00:00:41.715Z,17.20
2019-06-20T00:03:08.679Z,16.23
2019-06-20T00:05:35.625Z,13.87
2019-06-20T00:08:03.146Z,15.67
2019-06-20T00:10:29.987Z,13.93
2019-06-20T00:13:00.241Z,13.40
2019-06-20T00:15:25.232Z,20.33
2019-06-20T00:17:52.127Z,16.63
2019-06-20T00:20:18.954Z,16.73
2019-06-20T00:22:45.667Z,19.30
2019-06-20T00:25:12.538Z,16.30
2019-06-20T00:27:39.421Z,18.10
2019-06-20T00:30:07.991Z,18.07
2019-06-20T00:32:34.777Z,19.77
2019-06-20T00:35:01.903Z,14.70
2019-06-20T00:37:28.555Z,16.43
2019-06-20T00:39:55.306Z,20.77
2019-06-20T00:42:21.983Z,18.20
2019-06-20T00:44:48.666Z,15.70
2019-06-20T00:47:15.262Z,17.87
2019-06-20T00:49:41.899Z,18.87
2019-06-20T00:52:08.471Z,16.93
2019-06-20T00:54:35.189Z,16.53
2019-06-20T00:57:01.956Z,15.73
2019-06-20T00:59:28.972Z,17.00
2019-06-20T01:01:55.525Z,14.20
2019-06-20T01:04:22.249Z,19.20
2019-06-20T01:06:52.182Z,19.10
2019-06-20T01:09:18.898Z,16.07
2019-06-20T01:11:45.659Z,14.13
2019-06-20T01:14:12.231Z,16.20
2019-06-20T01:16:39.149Z,18.57
2019-06-20T01:19:05.797Z,19.10
2019-06-20T01:21:32.529Z,14.50
2019-06-20T01:23:59.240Z,17.30
2019-06-20T01:26:25.795Z,18.20
2019-06-20T01:28:52.489Z,17.10
2019-06-20T01:31:19.058Z,16.27
2019-06-20T01:33:45.677Z,17.87
2019-06-20T01:36:12.453Z,18.63
2019-06-20T01:38:39.252Z,19.77
2019-06-20T01:41:06.557Z,18.40
2019-06-20T01:43:49.148Z,17.97
2019-06-20T01:46:02.139Z,18.60
2019-06-20T01:48:28.716Z,16.13
2019-06-20T01:50:55.293Z,20.30
2019-06-20T01:53:40.688Z,13.90
2019-06-20T01:56:07.395Z,22.17
2019-06-20T01:58:34.034Z,16.53
2019-06-20T02:01:00.667Z,17.33
2019-06-20T02:03:28.654Z,15.50
2019-06-20T02:05:55.511Z,19.07
2019-06-20T02:08:22.157Z,16.33
2019-06-20T02:10:48.911Z,16.57
2019-06-20T02:13:15.477Z,15.17
2019-06-20T02:15:42.154Z,18.17
2019-06-20T02:18:09.087Z,14.43
2019-06-20T02:20:41.382Z,20.80
2019-06-20T02:23:08.139Z,21.43
2019-06-20T02:25:35.189Z,19.10
2019-06-20T02:28:02.150Z,20.77
2019-06-20T02:30:28.906Z,17.97
2019-06-20T02:32:55.707Z,15.13
2019-06-20T02:35:22.547Z,12.80
2019-06-20T02:37:49.104Z,12.17
2019-06-20T02:40:16.128Z,14.20
2019-06-20T02:42:43.000Z,14.27
2019-06-20T02:45:09.891Z,12.87
2019-06-20T02:47:36.703Z,14.77
2019-06-20T02:50:05.678Z,13.93
2019-06-20T02:52:32.635Z,13.90
2019-06-20T02:55:57.508Z,14.63
2019-06-20T02:58:24.122Z,17.73
2019-06-20T03:00:56.863Z,12.33
2019-06-20T03:03:25.588Z,13.43
2019-06-20T03:05:52.690Z,12.30
2019-06-20T03:08:19.557Z,15.00
2019-06-20T03:10:46.363Z,12.60
2019-06-20T03:13:13.465Z,13.50
2019-06-20T03:15:40.223Z,13.90
2019-06-20T03:18:07.114Z,11.90
2019-06-20T03:20:33.771Z,15.67
2019-06-20T03:23:00.386Z,12.70
2019-06-20T03:25:28.336Z,15.60
2019-06-20T03:27:54.976Z,12.13
2019-06-20T03:30:21.967Z,11.63
2019-06-20T03:32:48.628Z,16.77
2019-06-20T03:35:16.199Z,14.90
2019-06-20T03:37:42.796Z,12.47
2019-06-20T03:40:10.102Z,14.50
2019-06-20T03:42:36.813Z,16.20
2019-06-20T03:45:06.012Z,11.13
2019-06-20T03:47:32.720Z,10.63
2019-06-20T03:49:59.330Z,15.00
2019-06-20T03:52:25.884Z,12.33
2019-06-20T03:54:52.461Z,11.73
2019-06-20T03:57:19.125Z,13.30
2019-06-20T03:59:45.796Z,12.67
2019-06-20T04:02:13.452Z,15.53
2019-06-20T04:04:43.532Z,12.87
2019-06-20T04:07:10.171Z,13.53
2019-06-20T04:09:36.920Z,13.97
2019-06-20T04:12:03.678Z,16.13
2019-06-20T04:14:30.359Z,12.93
2019-06-20T04:16:56.971Z,18.07
2019-06-20T04:19:24.647Z,16.23
2019-06-20T04:21:51.268Z,14.67
2019-06-20T04:24:18.022Z,10.47
2019-06-20T04:26:44.601Z,13.00
2019-06-20T04:29:11.235Z,13.00
2019-06-20T04:31:37.977Z,10.47
2019-06-20T04:34:04.914Z,10.73
2019-06-20T04:36:31.519Z,11.50
2019-06-20T04:38:58.101Z,11.27
2019-06-20T04:41:24.703Z,10.40
2019-06-20T04:43:51.303Z,12.53
2019-06-20T04:46:20.225Z,10.70
2019-06-20T04:48:46.806Z,13.10
2019-06-20T04:51:13.373Z,12.07
2019-06-20T04:53:40.129Z,19.83
2019-06-20T04:56:06.910Z,13.03
2019-06-20T04:58:33.540Z,13.17
2019-06-20T05:01:00.263Z,9.47
2019-06-20T05:03:26.852Z,14.10
2019-06-20T05:05:53.500Z,16.60
2019-06-20T05:08:20.136Z,10.30
2019-06-20T05:10:46.931Z,9.27
2019-06-20T05:13:13.640Z,13.83
2019-06-20T05:15:52.067Z,11.73
2019-06-20T05:18:09.289Z,14.70
2019-06-20T05:20:36.012Z,11.50
2019-06-20T05:23:03.037Z,15.03
2019-06-20T05:25:29.738Z,14.17
2019-06-20T05:27:57.137Z,12.00
2019-06-20T05:30:24.103Z,8.87
2019-06-20T05:32:50.730Z,12.03
2019-06-20T05:35:17.600Z,11.73
2019-06-20T05:37:44.184Z,11.30
2019-06-20T05:40:11.592Z,13.77
2019-06-20T05:42:38.381Z,13.43
2019-06-20T05:45:06.996Z,17.33
2019-06-20T05:47:34.234Z,12.30
2019-06-20T05:50:00.969Z,12.80
2019-06-20T05:52:27.556Z,19.53
2019-06-20T05:54:54.126Z,16.87
2019-06-20T05:57:20.742Z,13.87
2019-06-20T05:59:47.312Z,12.10
2019-06-20T06:02:14.041Z,10.57
2019-06-20T06:04:40.658Z,14.93
2019-06-20T06:07:07.372Z,15.80
2019-06-20T06:09:34.095Z,11.70
2019-06-20T06:12:00.792Z,13.50
2019-06-20T06:14:27.500Z,14.17
2019-06-20T06:16:54.147Z,13.73
2019-06-20T06:19:20.732Z,12.43
2019-06-20T06:21:47.456Z,13.70
2019-06-20T06:24:14.380Z,12.10
2019-06-20T06:26:41.057Z,13.87
2019-06-20T06:29:08.045Z,11.63
2019-06-20T06:31:34.782Z,14.97
2019-06-20T06:34:01.557Z,13.97
2019-06-20T06:36:28.360Z,13.00
2019-06-20T06:38:54.914Z,11.47
2019-06-20T06:41:21.662Z,11.93
2019-06-20T06:43:49.548Z,12.73
2019-06-20T06:46:16.342Z,9.90
2019-06-20T06:48:43.200Z,13.00
2019-06-20T06:51:10.004Z,11.73
2019-06-20T06:53:36.917Z,12.17
2019-06-20T06:56:04.030Z,8.10
2019-06-20T06:58:30.705Z,16.13
2019-06-20T07:00:57.405Z,11.83
2019-06-20T07:03:24.342Z,10.73
2019-06-20T07:05:51.537Z,12.40
2019-06-20T07:08:18.174Z,14.13
2019-06-20T07:10:44.895Z,14.70
2019-06-20T07:13:11.516Z,12.17
2019-06-20T07:15:38.461Z,8.50
2019-06-20T07:18:05.362Z,10.53
2019-06-20T07:20:32.209Z,13.60
2019-06-20T07:22:58.995Z,10.60
2019-06-20T07:25:26.298Z,15.73
2019-06-20T07:27:52.883Z,10.30
2019-06-20T07:30:20.954Z,10.43
2019-06-20T07:32:47.840Z,13.37
2019-06-20T07:35:14.894Z,11.03
2019-06-20T07:37:41.711Z,12.60
2019-06-20T07:40:09.674Z,12.10
2019-06-20T07:42:36.984Z,15.00
2019-06-20T07:45:06.985Z,14.63
2019-06-20T07:47:35.170Z,11.73
2019-06-20T07:50:07.349Z,9.40
2019-06-20T07:52:34.404Z,9.27
2019-06-20T07:55:01.318Z,12.07
2019-06-20T07:57:28.011Z,9.70
2019-06-20T07:59:54.587Z,12.63
2019-06-20T08:02:21.351Z,10.70
2019-06-20T08:04:47.935Z,13.00
2019-06-20T08:07:14.546Z,14.93
2019-06-20T08:09:45.100Z,13.93
2019-06-20T08:12:09.753Z,15.00
2019-06-20T08:14:36.931Z,11.97
2019-06-20T08:17:03.656Z,11.73
2019-06-20T08:19:30.601Z,12.03
2019-06-20T08:21:57.294Z,11.30
2019-06-20T08:24:23.981Z,11.63
2019-06-20T08:26:50.795Z,15.03
2019-06-20T08:29:21.166Z,14.23
2019-06-20T08:31:46.335Z,12.33
2019-06-20T08:34:13.403Z,10.80
2019-06-20T08:36:40.220Z,17.43
2019-06-20T08:39:09.042Z,13.70
2019-06-20T08:41:35.784Z,12.40
2019-06-20T08:44:03.944Z,11.23
2019-06-20T08:46:31.207Z,9.90
2019-06-20T08:48:59.171Z,13.33
2019-06-20T08:51:26.320Z,16.60
2019-06-20T08:53:52.932Z,15.57
2019-06-20T08:56:19.596Z,11.00
2019-06-20T08:58:46.751Z,14.87
2019-06-20T09:01:13.662Z,8.83
2019-06-20T09:03:40.215Z,11.00
2019-06-20T09:06:07.732Z,14.20
2019-06-20T09:08:34.417Z,14.17
2019-06-20T09:11:01.801Z,11.40
2019-06-20T09:13:28.595Z,13.70
2019-06-20T09:15:56.673Z,10.80
2019-06-20T09:18:23.634Z,17.07
2019-06-20T09:20:52.691Z,8.87
2019-06-20T09:23:18.957Z,12.30
2019-06-20T09:25:46.027Z,12.97
2019-06-20T09:28:12.735Z,13.63
2019-06-20T09:30:39.915Z,14.30
2019-06-20T09:33:08.215Z,12.93
2019-06-20T09:35:35.523Z,9.87
2019-06-20T09:38:03.454Z,8.53
2019-06-20T09:40:32.295Z,13.20
2019-06-20T09:42:59.096Z,12.80
2019-06-20T09:45:26.225Z,9.03
2019-06-20T09:47:53.767Z,14.47
2019-06-20T09:50:22.412Z,13.77
2019-06-20T09:52:53.144Z,16.87
2019-06-20T09:55:20.739Z,11.00
2019-06-20T09:57:49.221Z,14.13
2019-06-20T10:00:21.578Z,11.87
2019-06-20T10:02:48.889Z,12.60
2019-06-20T10:05:23.309Z,11.80
2019-06-20T10:07:52.254Z,10.40
2019-06-20T10:10:23.683Z,12.80
2019-06-20T10:12:51.663Z,8.87
2019-06-20T10:15:23.861Z,10.37
2019-06-20T10:17:51.870Z,12.03
2019-06-20T10:20:21.237Z,11.43
2019-06-20T10:22:50.981Z,16.93
2019-06-20T10:25:18.969Z,15.60
2019-06-20T10:27:46.543Z,10.87
2019-06-20T10:30:15.760Z,8.97
2019-06-20T10:32:42.658Z,12.23
2019-06-20T10:35:12.379Z,11.33
2019-06-20T10:37:39.943Z,15.27
2019-06-20T10:40:08.060Z,14.30
2019-06-20T10:42:34.878Z,11.83
2019-06-20T10:45:05.699Z,15.63
2019-06-20T10:47:35.959Z,15.63
2019-06-20T10:50:01.203Z,17.23
2019-06-20T10:52:27.842Z,13.10
2019-06-20T10:54:54.636Z,12.90
2019-06-20T10:57:21.654Z,10.90
2019-06-20T10:59:48.475Z,15.13
2019-06-20T11:02:15.140Z,13.87
2019-06-20T11:04:42.324Z,16.10
2019-06-20T11:07:10.591Z,13.37
2019-06-20T11:09:39.605Z,10.90
2019-06-20T11:12:06.560Z,11.83
2019-06-20T11:14:33.251Z,11.17
2019-06-20T11:16:59.953Z,13.47
2019-06-20T11:19:26.632Z,12.80
2019-06-20T11:21:53.225Z,14.50
2019-06-20T11:24:19.827Z,14.73
2019-06-20T11:26:47.860Z,12.63
2019-06-20T11:29:14.999Z,11.97
2019-06-20T11:31:44.679Z,14.77
2019-06-20T11:34:10.356Z,16.50
2019-06-20T11:36:38.650Z,14.77
2019-06-20T11:39:06.456Z,13.83
2019-06-20T11:41:33.331Z,9.00
2019-06-20T11:43:59.935Z,15.50
2019-06-20T11:46:26.717Z,19.10
2019-06-20T11:48:53.297Z,12.33
2019-06-20T11:51:20.020Z,13.57
2019-06-20T11:53:46.749Z,14.70
2019-06-20T11:56:13.566Z,13.93
2019-06-20T11:58:40.255Z,12.47
2019-06-20T12:01:06.839Z,11.00
2019-06-20T12:03:33.640Z,13.00
2019-06-20T12:06:00.225Z,13.20
2019-06-20T12:08:27.006Z,11.37
2019-06-20T12:10:53.601Z,13.47
2019-06-20T12:13:20.172Z,10.77
2019-06-20T12:15:46.847Z,15.87
2019-06-20T12:18:13.591Z,12.17
2019-06-20T12:20:41.176Z,10.90
2019-06-20T12:23:08.307Z,14.77
2019-06-20T12:25:35.191Z,12.87
2019-06-20T12:28:01.982Z,10.83
2019-06-20T12:30:33.913Z,12.30
2019-06-20T12:33:00.613Z,10.83
2019-06-20T12:35:27.265Z,13.37
2019-06-20T12:37:53.882Z,12.43
2019-06-20T12:40:21.184Z,13.67
2019-06-20T12:42:49.276Z,12.67
2019-06-20T12:45:16.977Z,7.90
2019-06-20T12:47:43.942Z,14.93
2019-06-20T12:50:13.007Z,11.27
2019-06-20T12:52:41.254Z,11.30
2019-06-20T12:55:11.798Z,15.13
2019-06-20T12:57:42.250Z,11.90
2019-06-20T13:00:12.058Z,9.37
2019-06-20T13:02:40.405Z,8.30
2019-06-20T13:05:09.037Z,10.50
2019-06-20T13:07:35.987Z,8.43
2019-06-20T13:10:06.779Z,10.23
2019-06-20T13:12:33.515Z,7.70
2019-06-20T13:15:00.432Z,8.23
2019-06-20T13:17:27.038Z,8.03
2019-06-20T13:19:53.963Z,11.70
2019-06-20T13:22:20.740Z,12.87
2019-06-20T13:24:47.422Z,12.50
2019-06-20T13:27:14.044Z,9.03
2019-06-20T13:29:40.862Z,9.03
2019-06-20T13:32:07.547Z,10.23
2019-06-20T13:34:34.211Z,6.83
2019-06-20T13:37:00.856Z,10.80
2019-06-20T13:39:27.546Z,8.20
2019-06-20T13:41:54.311Z,7.95
2019-06-20T13:44:21.782Z,6.95
2019-06-20T13:46:49.146Z,10.83
2019-06-20T13:49:15.889Z,9.27
2019-06-20T13:51:43.351Z,7.40
2019-06-20T13:54:10.217Z,7.83
2019-06-20T13:56:40.210Z,9.93
2019-06-20T13:59:10.045Z,7.95
2019-06-20T14:01:35.491Z,7.58
2019-06-20T14:04:02.499Z,9.47
2019-06-20T14:06:29.184Z,10.80
2019-06-20T14:08:55.929Z,9.15
2019-06-20T14:11:22.874Z,10.68
2019-06-20T14:13:52.832Z,7.00
2019-06-20T14:16:18.149Z,6.50
2019-06-20T14:18:46.409Z,8.10
2019-06-20T14:21:13.653Z,7.25
2019-06-20T14:23:40.975Z,7.90
2019-06-20T14:26:09.152Z,12.35
2019-06-20T14:28:36.005Z,9.48
2019-06-20T14:31:03.184Z,4.62
2019-06-20T14:33:31.833Z,6.53
2019-06-20T14:35:59.159Z,8.65
2019-06-20T14:38:26.023Z,6.40
2019-06-20T14:40:52.929Z,4.30
2019-06-20T14:43:19.559Z,7.37
2019-06-20T14:45:46.842Z,4.78
2019-06-20T14:48:14.079Z,5.15
2019-06-20T14:50:40.822Z,13.90
2019-06-20T14:53:07.924Z,5.78
2019-06-20T14:55:34.529Z,6.45
2019-06-20T14:58:01.209Z,8.23
2019-06-20T15:00:28.222Z,7.33
2019-06-20T15:02:58.428Z,6.75
2019-06-20T15:05:23.838Z,7.20
2019-06-20T15:07:52.228Z,6.60
2019-06-20T15:10:19.814Z,7.65
2019-06-20T15:12:48.361Z,4.42
2019-06-20T15:15:17.107Z,8.90
2019-06-20T15:17:46.502Z,7.10
2019-06-20T15:20:13.310Z,4.42
2019-06-20T15:22:41.300Z,4.85
2019-06-20T15:25:08.931Z,5.90
2019-06-20T15:27:35.922Z,6.42
2019-06-20T15:30:06.609Z,7.85
2019-06-20T15:32:33.270Z,5.05
2019-06-20T15:35:01.896Z,4.60
2019-06-20T15:37:31.881Z,5.72
2019-06-20T15:39:58.694Z,7.22
2019-06-20T15:42:25.380Z,7.25
2019-06-20T15:44:52.086Z,5.35
2019-06-20T15:47:19.048Z,5.50
2019-06-20T15:49:45.703Z,6.40
2019-06-20T15:52:12.608Z,8.23
2019-06-20T15:54:39.204Z,5.85
2019-06-20T15:57:06.071Z,5.50
2019-06-20T15:59:32.740Z,5.97
2019-06-20T16:01:59.344Z,7.15
2019-06-20T16:04:26.190Z,6.37
2019-06-20T16:06:53.060Z,6.40
2019-06-20T16:09:19.968Z,11.20
2019-06-20T16:11:46.683Z,6.92
2019-06-20T16:14:13.843Z,10.72
2019-06-20T16:16:40.457Z,7.75
2019-06-20T16:19:07.055Z,6.65
2019-06-20T16:21:33.669Z,7.40
2019-06-20T16:24:00.528Z,7.55
2019-06-20T16:26:27.123Z,7.08
2019-06-20T16:28:53.725Z,6.78
2019-06-20T16:31:26.623Z,4.83
2019-06-20T16:33:49.042Z,8.68
2019-06-20T16:36:17.264Z,6.50
2019-06-20T16:38:43.978Z,8.70
2019-06-20T16:41:10.713Z,5.12
2019-06-20T16:43:37.672Z,5.30
2019-06-20T16:46:04.902Z,6.45
2019-06-20T16:48:31.948Z,6.90
2019-06-20T16:50:58.811Z,7.85
2019-06-20T16:53:25.823Z,7.07
2019-06-20T16:55:52.445Z,5.05
2019-06-20T16:58:20.470Z,9.40
2019-06-20T17:00:47.096Z,13.03
2019-06-20T17:03:13.827Z,5.83
2019-06-20T17:05:40.723Z,12.68
2019-06-20T17:08:07.866Z,4.97
2019-06-20T17:10:34.690Z,4.50
2019-06-20T17:13:01.734Z,8.65
2019-06-20T17:15:29.443Z,4.33
2019-06-20T17:17:56.138Z,4.55
2019-06-20T17:20:23.685Z,6.67
2019-06-20T17:22:50.492Z,7.70
2019-06-20T17:25:17.786Z,5.00
2019-06-20T17:27:44.700Z,6.27
2019-06-20T17:30:15.605Z,6.03
2019-06-20T17:32:42.525Z,6.50
2019-06-20T17:35:09.501Z,9.43
2019-06-20T17:37:36.576Z,10.80
2019-06-20T17:40:07.217Z,6.50
2019-06-20T17:42:34.140Z,13.43
2019-06-20T17:45:01.016Z,9.57
2019-06-20T17:47:27.933Z,7.37
2019-06-20T17:49:54.634Z,10.15
2019-06-20T17:52:21.207Z,8.53
2019-06-20T17:54:47.950Z,6.73
2019-06-20T17:57:15.404Z,6.43
2019-06-20T17:59:42.247Z,9.00
2019-06-20T18:02:09.162Z,9.10
2019-06-20T18:04:36.226Z,7.00
2019-06-20T18:07:03.014Z,12.67
2019-06-20T18:09:29.929Z,10.50
2019-06-20T18:11:56.641Z,6.73
2019-06-20T18:14:23.748Z,7.43
2019-06-20T18:16:50.966Z,8.73
2019-06-20T18:19:17.803Z,7.70
2019-06-20T18:21:46.255Z,10.97
2019-06-20T18:24:13.579Z,9.37
2019-06-20T18:26:42.233Z,15.03
2019-06-20T18:29:09.312Z,10.03
2019-06-20T18:31:36.327Z,14.83
2019-06-20T18:34:03.293Z,10.30
2019-06-20T18:36:33.200Z,7.97
2019-06-20T18:39:00.066Z,9.80
2019-06-20T18:41:26.668Z,11.00
2019-06-20T18:43:54.211Z,10.77
2019-06-20T18:46:21.815Z,10.23
2019-06-20T18:48:48.714Z,9.90
2019-06-20T18:51:15.403Z,7.63
2019-06-20T18:53:46.224Z,10.40
2019-06-20T18:56:13.228Z,10.30
2019-06-20T18:58:39.997Z,11.77
2019-06-20T19:01:06.809Z,13.43
2019-06-20T19:03:38.457Z,8.97
2019-06-20T19:06:05.250Z,11.73
2019-06-20T19:08:32.069Z,12.27
2019-06-20T19:10:59.292Z,13.07
2019-06-20T19:13:27.178Z,13.30
2019-06-20T19:15:54.025Z,12.73
2019-06-20T19:18:23.096Z,13.30
2019-06-20T19:20:49.915Z,10.23
2019-06-20T19:23:18.303Z,12.03
2019-06-20T19:25:45.391Z,12.87
2019-06-20T19:28:12.922Z,14.60
2019-06-20T19:30:44.945Z,13.60
2019-06-20T19:33:11.894Z,11.77
2019-06-20T19:35:39.693Z,12.60
2019-06-20T19:38:07.064Z,10.90
2019-06-20T19:40:39.445Z,13.73
2019-06-20T19:43:06.262Z,11.50
2019-06-20T19:45:32.968Z,11.50
2019-06-20T19:47:59.786Z,11.57
2019-06-20T19:50:26.577Z,15.53
2019-06-20T19:52:53.572Z,13.27
2019-06-20T19:55:20.889Z,11.33
2019-06-20T19:57:47.921Z,11.53
2019-06-20T20:00:18.053Z,15.23
2019-06-20T20:02:45.290Z,13.27
2019-06-20T20:05:19.046Z,17.20
2019-06-20T20:07:41.693Z,17.03
2019-06-20T20:10:09.570Z,11.10
2019-06-20T20:12:38.292Z,19.50
2019-06-20T20:15:08.482Z,15.07
2019-06-20T20:17:35.631Z,10.20
2019-06-20T20:20:05.260Z,12.53
2019-06-20T20:22:32.114Z,17.17
2019-06-20T20:24:58.881Z,14.30
2019-06-20T20:27:25.756Z,15.43
2019-06-20T20:29:52.327Z,11.57
2019-06-20T20:32:19.020Z,12.70
2019-06-20T20:34:45.735Z,10.17
2019-06-20T20:37:12.296Z,11.70
2019-06-20T20:39:39.318Z,14.27
2019-06-20T20:42:06.104Z,8.63
2019-06-20T20:44:32.858Z,15.77
2019-06-20T20:46:59.603Z,12.57
2019-06-20T20:49:26.285Z,11.70
2019-06-20T20:51:54.051Z,11.80
2019-06-20T20:54:23.461Z,9.07
2019-06-20T20:56:50.954Z,10.97
2019-06-20T20:59:17.891Z,13.30
2019-06-20T21:01:44.546Z,10.03
2019-06-20T21:04:11.373Z,8.83
2019-06-20T21:06:38.220Z,12.97
2019-06-20T21:09:06.348Z,14.97
2019-06-20T21:11:33.909Z,10.73
2019-06-20T21:14:00.808Z,12.77
2019-06-20T21:16:27.503Z,10.00
2019-06-20T21:18:54.621Z,16.67
2019-06-20T21:21:21.417Z,12.40
2019-06-20T21:23:48.306Z,14.37
2019-06-20T21:26:15.055Z,17.90
2019-06-20T21:28:41.880Z,10.67
2019-06-20T21:31:08.832Z,12.40
2019-06-20T21:33:35.535Z,12.10
2019-06-20T21:36:08.489Z,11.30
2019-06-20T21:38:30.907Z,8.93
2019-06-20T21:40:58.788Z,8.00
2019-06-20T21:43:25.500Z,10.43
2019-06-20T21:45:52.323Z,11.27
2019-06-20T21:48:19.123Z,5.80
2019-06-20T21:50:45.920Z,6.60
2019-06-20T21:53:12.704Z,6.17
2019-06-20T21:55:40.810Z,8.83
2019-06-20T21:58:07.622Z,8.87
2019-06-20T22:00:41.233Z,8.43
2019-06-20T22:03:13.635Z,7.63
2019-06-20T22:05:42.214Z,5.67
2019-06-20T22:08:09.408Z,9.73
2019-06-20T22:10:36.285Z,6.80
2019-06-20T22:13:04.159Z,5.57
2019-06-20T22:15:32.317Z,3.93
2019-06-20T22:17:59.305Z,6.70
2019-06-20T22:20:26.533Z,3.77
2019-06-20T22:22:53.342Z,5.57
2019-06-20T22:25:20.851Z,7.17
2019-06-20T22:27:47.977Z,5.07
2019-06-20T22:30:17.914Z,7.77
2019-06-20T22:32:44.476Z,4.00
2019-06-20T22:35:11.521Z,7.10
2019-06-20T22:37:38.382Z,10.17
2019-06-20T22:40:08.065Z,6.47
2019-06-20T22:42:34.993Z,3.70
2019-06-20T22:45:07.129Z,5.83
2019-06-20T22:47:34.386Z,7.57
2019-06-20T22:50:02.773Z,6.83
2019-06-20T22:52:29.574Z,6.53
2019-06-20T22:54:56.259Z,4.70
2019-06-20T22:57:23.309Z,4.20
2019-06-20T23:00:46.393Z,5.00
2019-06-20T23:03:13.284Z,4.73
2019-06-20T23:05:41.308Z,5.60
2019-06-20T23:08:08.280Z,5.87
2019-06-20T23:10:35.006Z,7.33
2019-06-20T23:13:01.851Z,8.17
2019-06-20T23:15:28.980Z,5.67
2019-06-20T23:17:55.579Z,8.70
2019-06-20T23:20:22.828Z,12.63
2019-06-20T23:22:49.549Z,8.50
2019-06-20T23:25:16.901Z,10.47
2019-06-20T23:27:44.450Z,5.87
2019-06-20T23:30:13.753Z,9.57
2019-06-20T23:32:40.492Z,9.43
2019-06-20T23:35:07.859Z,8.17
2019-06-20T23:37:34.896Z,9.30
2019-06-20T23:40:04.620Z,7.83
2019-06-20T23:42:31.267Z,12.03
2019-06-20T23:44:57.840Z,7.70
2019-06-20T23:47:24.574Z,5.97
2019-06-20T23:49:51.203Z,6.53
2019-06-20T23:52:20.233Z,7.93
2019-06-20T23:54:47.015Z,8.50
2019-06-20T23:57:13.743Z,8.33
2019-06-20T23:59:40.567Z,10.00
